Time;durP1;ratioP1;P1;durP2;ratioP2;P2;SDS_P1;SDS_P2;PMS_P1;PMS_P2;Temp;Humidity;BMP_temperature;BMP_pressure;BME280_temperature;BME280_humidity;BME280_pressure;Samples;Min_cycle;Max_cycle;Signal;HPM_P1;HPM_P2
2024/04/23 00:01:29;;;;;;;4.03;3.22;;;;;;;11.96;62.72;99503.16;5097210;27;20001;-91
2024/04/23 00:03:55;;;;;;;4.22;2.78;;;;;;;11.89;62.67;99493.47;5070291;27;20062;-91
2024/04/23 00:06:21;;;;;;;4.57;2.90;;;;;;;11.99;63.05;99516.88;5069825;27;20008;-91
2024/04/23 00:08:46;;;;;;;3.95;3.10;;;;;;;11.95;63.82;99523.91;5096780;27;20445;-91
2024/04/23 00:11:12;;;;;;;3.90;3.10;;;;;;;11.95;63.10;99515.03;5099291;27;20020;-91
2024/04/23 00:13:37;;;;;;;4.18;2.92;;;;;;;11.85;63.89;99507.72;5103140;27;20009;-93
2024/04/23 00:16:03;;;;;;;3.65;2.90;;;;;;;11.88;63.90;99510.72;5111882;27;20005;-89
2024/04/23 00:18:29;;;;;;;6.53;3.20;;;;;;;11.97;63.60;99519.06;5075565;27;20005;-90
2024/04/23 00:20:55;;;;;;;3.80;3.10;;;;;;;11.93;63.94;99512.59;5096030;27;20009;-90
2024/04/23 00:23:22;;;;;;;5.28;2.92;;;;;;;11.95;63.43;99506.91;5093738;27;20016;-90
2024/04/23 00:25:47;;;;;;;3.85;2.60;;;;;;;12.10;63.36;99513.09;5101530;27;20008;-90
2024/04/23 00:28:13;;;;;;;3.13;2.50;;;;;;;12.13;63.79;99499.03;5122482;27;20448;-91
2024/04/23 00:30:38;;;;;;;6.18;3.03;;;;;;;12.24;64.70;99502.53;5096120;27;20001;-91
2024/04/23 00:33:07;;;;;;;3.00;2.70;;;;;;;12.20;65.25;99498.75;5097538;27;20005;-91
2024/04/23 00:35:33;;;;;;;3.28;2.40;;;;;;;12.20;64.86;99497.94;5098147;27;20072;-90
2024/04/23 00:37:59;;;;;;;3.33;2.33;;;;;;;12.23;64.18;99498.19;5122135;27;20012;-90
2024/04/23 00:40:27;;;;;;;3.65;2.40;;;;;;;12.40;65.22;99518.66;5123073;27;20413;-92
2024/04/23 00:42:53;;;;;;;3.55;2.50;;;;;;;12.20;65.15;99482.56;5123502;27;20321;-90
2024/04/23 00:45:18;;;;;;;2.92;2.53;;;;;;;12.22;66.31;99487.66;5096576;27;20005;-90
2024/04/23 00:47:44;;;;;;;2.75;2.25;;;;;;;12.36;65.92;99506.78;5095239;27;20016;-89
2024/04/23 00:50:10;;;;;;;3.38;2.67;;;;;;;12.23;66.38;99489.28;5095028;27;20012;-90
2024/04/23 00:52:36;;;;;;;2.70;2.22;;;;;;;12.22;66.61;99485.78;5094840;27;19997;-90
2024/04/23 00:55:01;;;;;;;6.20;2.20;;;;;;;12.16;66.58;99476.09;5078048;28;20006;-91
2024/04/23 00:57:27;;;;;;;3.50;2.50;;;;;;;12.23;66.95;99483.91;5066311;28;20041;-91
2024/04/23 00:59:55;;;;;;;3.70;2.60;;;;;;;12.23;67.75;99468.50;5067346;28;20006;-91
2024/04/23 01:02:21;;;;;;;3.05;2.30;;;;;;;12.09;66.69;99424.28;5074267;28;20018;-92
2024/04/23 01:04:46;;;;;;;4.35;2.60;;;;;;;12.15;67.11;99435.88;5068538;28;20438;-90
2024/04/23 01:07:12;;;;;;;4.53;2.47;;;;;;;12.20;66.89;99450.16;5067041;28;20014;-91
2024/04/23 01:09:37;;;;;;;4.40;2.60;;;;;;;12.16;67.74;99446.41;5066663;28;19998;-91
2024/04/23 01:12:03;;;;;;;2.78;2.35;;;;;;;12.27;67.41;99449.88;5067301;28;20493;-91
2024/04/23 01:14:32;;;;;;;5.47;2.70;;;;;;;12.35;66.86;99433.09;5068751;27;20017;-92
2024/04/23 01:16:57;;;;;;;3.72;2.67;;;;;;;12.24;67.88;99413.44;5078268;28;20006;-90
2024/04/23 01:19:35;;;;;;;5.40;2.90;;;;;;;12.30;68.91;99425.00;5061294;28;20022;-91
2024/04/23 01:22:06;;;;;;;4.03;2.50;;;;;;;12.21;67.92;99410.47;5062732;28;20326;-91
2024/04/23 01:24:55;;;;;;;3.05;2.35;;;;;;;12.25;68.20;99417.75;5093065;28;20030;-91
2024/04/23 01:27:21;;;;;;;2.90;2.40;;;;;;;12.30;69.77;99430.41;5118061;28;20014;-90
2024/04/23 01:29:47;;;;;;;4.38;2.38;;;;;;;12.33;69.01;99427.94;5066049;28;20433;-91
2024/04/23 01:32:13;;;;;;;4.65;2.58;;;;;;;12.24;69.53;99408.03;5067866;28;19998;-92
2024/04/23 01:34:38;;;;;;;4.00;2.38;;;;;;;12.23;69.89;99408.31;5066783;28;20478;-90
2024/04/23 01:37:04;;;;;;;3.58;2.50;;;;;;;12.36;70.89;99437.38;5066572;28;20452;-90
2024/04/23 01:39:30;;;;;;;3.78;2.35;;;;;;;12.19;70.56;99401.84;5065909;28;20004;-93
2024/04/23 01:41:57;;;;;;;2.95;2.30;;;;;;;12.31;71.63;99421.22;5069832;28;20002;-91
2024/04/23 01:44:25;;;;;;;2.55;2.05;;;;;;;12.25;71.29;99419.63;5059997;28;20017;-92
2024/04/23 01:46:50;;;;;;;3.63;2.58;;;;;;;12.15;72.06;99428.59;5083277;28;20107;-92
2024/04/23 01:49:16;;;;;;;3.05;2.72;;;;;;;12.21;73.71;99440.16;5073878;28;20017;-91
2024/04/23 01:51:41;;;;;;;3.60;2.67;;;;;;;12.06;73.68;99414.06;5071197;28;20042;-90
2024/04/23 01:54:07;;;;;;;2.97;2.40;;;;;;;12.18;73.21;99427.22;5039326;28;20002;-87
2024/04/23 01:56:33;;;;;;;4.15;2.13;;;;;;;12.16;72.78;99435.63;5066856;28;20002;-90
2024/04/23 01:58:58;;;;;;;2.47;2.05;;;;;;;12.10;72.78;99436.72;5040559;28;20001;-91
2024/04/23 02:01:24;;;;;;;6.15;2.65;;;;;;;12.18;72.87;99449.63;5065787;28;20013;-91
2024/04/23 02:03:49;;;;;;;5.90;2.42;;;;;;;12.11;74.37;99438.31;5041348;28;20012;-91
2024/04/23 02:06:15;;;;;;;8.40;2.95;;;;;;;12.02;75.33;99440.00;5039282;28;20009;-90
2024/04/23 02:08:41;;;;;;;2.90;2.60;;;;;;;11.99;74.45;99465.63;5039835;28;20009;-92
2024/04/23 02:11:06;;;;;;;4.10;2.60;;;;;;;11.79;73.65;99439.50;5040523;28;20014;-92
2024/04/23 02:13:32;;;;;;;2.45;2.20;;;;;;;11.69;73.95;99412.56;5066458;28;20311;-92
2024/04/23 02:16:00;;;;;;;3.92;2.40;;;;;;;11.91;74.11;99447.28;5040600;28;19998;-91
2024/04/23 02:18:25;;;;;;;2.65;2.35;;;;;;;11.80;74.02;99413.31;5066083;28;20001;-92
2024/04/23 02:20:51;;;;;;;2.92;2.20;;;;;;;11.82;73.24;99424.66;5041111;28;20009;-91
2024/04/23 02:23:17;;;;;;;3.55;2.15;;;;;;;11.83;73.71;99421.69;5041264;28;20012;-91
2024/04/23 02:25:42;;;;;;;3.15;2.40;;;;;;;11.85;74.32;99429.47;5040843;28;20008;-89
2024/04/23 02:28:09;;;;;;;8.45;2.40;;;;;;;11.72;75.22;99429.00;5082668;28;20005;-91
2024/04/23 02:30:35;;;;;;;2.75;2.30;;;;;;;11.76;74.94;99426.53;5066144;28;20438;-91
2024/04/23 02:33:00;;;;;;;3.88;2.30;;;;;;;11.66;75.62;99419.31;5066454;28;20029;-92
2024/04/23 02:35:26;;;;;;;3.03;2.25;;;;;;;11.74;76.15;99426.00;5066077;28;20001;-90
2024/04/23 02:37:52;;;;;;;6.35;2.35;;;;;;;11.82;75.14;99427.34;5066447;28;20082;-93
2024/04/23 02:40:18;;;;;;;4.57;2.53;;;;;;;11.82;74.89;99438.94;5065495;28;20002;-91
2024/04/23 02:42:43;;;;;;;2.78;2.42;;;;;;;11.93;74.64;99456.75;5066424;28;20011;-91
2024/04/23 02:45:09;;;;;;;3.85;2.88;;;;;;;11.75;75.23;99424.16;5065913;28;20002;-91
2024/04/23 02:47:34;;;;;;;3.42;2.60;;;;;;;11.91;75.04;99447.28;5092346;28;20078;-90
2024/04/23 02:50:00;;;;;;;3.20;2.50;;;;;;;11.79;75.09;99427.91;5066606;28;20002;-92
2024/04/23 02:52:26;;;;;;;3.95;2.63;;;;;;;11.73;74.55;99422.50;5065454;28;20450;-92
2024/04/23 02:54:51;;;;;;;3.17;2.50;;;;;;;11.81;75.16;99439.22;5068060;28;20005;-90
2024/04/23 02:57:17;;;;;;;3.33;2.50;;;;;;;11.82;75.56;99443.53;5093616;28;20012;-92
2024/04/23 02:59:43;;;;;;;2.78;2.38;;;;;;;11.78;76.26;99453.25;5067796;28;19994;-91
2024/04/23 03:02:10;;;;;;;2.22;1.77;;;;;;;11.83;75.29;99445.97;5066431;28;20014;-91
2024/04/23 03:04:36;;;;;;;2.55;2.15;;;;;;;11.72;75.08;99433.56;5067078;28;20021;-92
2024/04/23 03:07:01;;;;;;;3.00;2.25;;;;;;;11.80;74.88;99424.91;5066219;28;20010;-90
2024/04/23 03:09:27;;;;;;;3.40;2.10;;;;;;;11.88;75.07;99448.66;5091724;28;20002;-90
2024/04/23 03:11:53;;;;;;;2.90;2.08;;;;;;;11.80;75.09;99441.09;5066183;28;20006;-90
2024/04/23 03:14:19;;;;;;;3.45;2.22;;;;;;;11.91;74.97;99448.13;5068173;28;20502;-90
2024/04/23 03:16:44;;;;;;;2.58;2.20;;;;;;;11.96;75.44;99466.19;5065939;28;20014;-91
2024/04/23 03:19:10;;;;;;;3.80;2.40;;;;;;;11.90;75.01;99443.78;5066687;28;20009;-93
2024/04/23 03:21:54;;;;;;;3.22;2.20;;;;;;;11.86;75.29;99453.50;5066442;27;19998;-92
2024/04/23 03:24:20;;;;;;;3.45;2.30;;;;;;;11.77;75.30;99443.56;5066237;28;20002;-92
2024/04/23 03:26:49;;;;;;;3.30;2.30;;;;;;;11.82;74.58;99430.03;5094060;27;20053;-91
2024/04/23 03:29:14;;;;;;;3.67;2.20;;;;;;;11.86;74.09;99418.41;5073686;27;20353;-91
2024/04/23 03:31:46;;;;;;;2.55;2.05;;;;;;;11.81;74.07;99407.66;5070478;27;20017;-92
2024/04/23 03:34:12;;;;;;;4.70;2.03;;;;;;;11.88;74.44;99405.50;5097161;27;20448;-92
2024/04/23 03:36:38;;;;;;;2.42;2.20;;;;;;;11.92;74.30;99403.84;5071709;27;20019;-90
2024/04/23 03:39:04;;;;;;;2.10;1.90;;;;;;;11.89;74.54;99406.28;5070874;27;20016;-89
2024/04/23 03:41:29;;;;;;;3.10;2.00;;;;;;;11.81;74.13;99375.28;5069765;27;20009;-92
2024/04/23 03:43:55;;;;;;;3.05;2.05;;;;;;;11.81;73.72;99383.38;5070708;27;19998;-90
2024/04/23 03:46:21;;;;;;;2.70;2.00;;;;;;;11.85;73.28;99397.09;5071066;27;20008;-88
2024/04/23 03:48:46;;;;;;;6.15;1.95;;;;;;;11.91;73.90;99423.84;5071184;27;20029;-90
2024/04/23 03:51:12;;;;;;;3.03;1.80;;;;;;;11.95;73.23;99428.66;5070359;27;20000;-90
2024/04/23 03:53:38;;;;;;;2.70;1.90;;;;;;;11.95;73.89;99437.56;5071324;27;20013;-93
2024/04/23 03:56:10;;;;;;;3.33;3.03;;;;;;;11.93;73.89;99426.25;5073239;27;20012;-93
2024/04/23 03:58:43;;;;;;;2.10;1.80;;;;;;;11.85;74.02;99403.31;5125517;27;20001;-94
2024/04/23 04:01:15;;;;;;;3.30;1.98;;;;;;;11.89;73.08;99396.31;5082785;27;20008;-94
2024/04/23 04:06:31;;;;;;;3.35;1.80;;;;;;;11.79;73.20;99390.94;5092946;27;19994;-94
2024/04/23 04:08:57;;;;;;;4.05;1.90;;;;;;;11.73;73.40;99365.06;5098971;27;20009;-93
2024/04/23 04:11:31;;;;;;;4.15;2.17;;;;;;;11.83;74.05;99386.59;5071058;27;20008;-93
2024/04/23 04:13:59;;;;;;;3.38;1.88;;;;;;;11.85;72.35;99365.56;5073056;27;20092;-90
2024/04/23 04:16:25;;;;;;;1.73;1.30;;;;;;;11.86;71.52;99358.25;5068433;27;20005;-92
2024/04/23 04:18:50;;;;;;;4.13;1.67;;;;;;;11.93;71.10;99365.00;5066019;28;20017;-92
2024/04/23 04:21:17;;;;;;;4.25;1.83;;;;;;;11.92;70.61;99338.31;5059057;27;20017;-95
2024/04/23 04:23:43;;;;;;;3.67;2.15;;;;;;;12.03;70.96;99352.53;5072582;27;20005;-91
2024/04/23 04:26:13;;;;;;;3.05;1.88;;;;;;;12.22;68.61;99367.00;5100195;27;20029;-94
2024/04/23 04:28:40;;;;;;;2.90;1.50;;;;;;;12.24;68.10;99343.25;5074832;27;20433;-94
2024/04/23 04:34:59;;;;;;;1.95;1.50;;;;;;;12.31;68.00;99341.03;5016970;28;20024;-96
2024/04/23 04:37:55;;;;;;;5.47;1.60;;;;;;;12.55;66.30;99394.31;4948610;28;20004;-94
2024/04/23 04:40:20;;;;;;;2.75;1.73;;;;;;;12.31;67.20;99362.63;5116508;27;20429;-92
2024/04/23 04:42:47;;;;;;;2.00;1.80;;;;;;;12.33;66.89;99368.56;5101266;27;20009;-94
2024/04/23 04:45:14;;;;;;;3.78;1.60;;;;;;;12.37;66.80;99376.91;5076137;27;19993;-94
2024/04/23 04:47:44;;;;;;;2.20;1.80;;;;;;;12.61;67.59;99395.91;5157172;27;20062;-93
2024/04/23 04:50:10;;;;;;;4.45;1.98;;;;;;;12.37;67.17;99368.81;5128369;27;20017;-91
2024/04/23 04:52:38;;;;;;;5.20;2.05;;;;;;;12.53;66.52;99385.69;5075766;27;20005;-95
2024/04/23 04:55:09;;;;;;;2.75;1.95;;;;;;;12.39;66.66;99379.31;5094499;28;20010;-96
2024/04/23 04:57:38;;;;;;;5.25;2.10;;;;;;;12.47;66.18;99381.41;5055038;27;20336;-95
2024/04/23 05:00:10;;;;;;;3.28;1.95;;;;;;;12.44;66.49;99371.19;5078521;27;20085;-95
2024/04/23 05:02:39;;;;;;;2.55;2.00;;;;;;;12.47;65.56;99376.00;5080597;27;20024;-96
2024/04/23 05:05:09;;;;;;;3.80;1.77;;;;;;;12.53;65.62;99386.53;5075094;27;20009;-94
2024/04/23 05:07:37;;;;;;;2.20;1.60;;;;;;;12.54;64.32;99381.91;5076881;27;19997;-95
2024/04/23 05:10:04;;;;;;;2.70;1.40;;;;;;;12.61;64.67;99379.69;5079158;27;20009;-95
2024/04/23 05:12:30;;;;;;;2.53;1.60;;;;;;;12.52;64.37;99371.38;5077087;27;19997;-94
2024/04/23 05:14:55;;;;;;;8.55;2.05;;;;;;;12.59;64.76;99381.06;5101952;27;20007;-95
2024/04/23 05:17:21;;;;;;;5.47;2.00;;;;;;;12.68;64.64;99382.09;5102197;27;20005;-95
2024/04/23 05:19:47;;;;;;;2.25;1.58;;;;;;;12.76;63.73;99391.47;5077216;27;20045;-96
2024/04/23 05:22:13;;;;;;;2.17;1.60;;;;;;;12.69;64.22;99379.09;5102884;27;20017;-93
2024/04/23 05:24:44;;;;;;;7.10;2.55;;;;;;;12.62;64.34;99373.22;5102007;27;20033;-94
2024/04/23 05:27:15;;;;;;;;;;;;;;;12.91;64.91;99415.69;5095044;28;20039;-95
2024/04/23 05:29:53;;;;;;;6.30;1.60;;;;;;;13.03;63.55;99409.91;5126546;28;19930;-96
2024/04/23 05:35:08;;;;;;;4.38;1.73;;;;;;;12.83;62.48;99354.94;5047591;28;20002;-94
2024/04/23 05:37:49;;;;;;;3.05;1.67;;;;;;;12.98;62.89;99369.41;5045300;27;19994;-96
2024/04/23 05:40:21;;;;;;;3.97;2.05;;;;;;;13.06;63.09;99357.97;5075239;27;20018;-95
2024/04/23 05:42:54;;;;;;;5.30;3.85;;;;;;;13.02;62.28;99349.63;5077532;27;20015;-94
2024/04/23 05:46:26;;;;;;;5.47;1.60;;;;;;;13.12;62.06;99386.59;5073923;27;20417;-92
2024/04/23 05:53:02;;;;;;;;;;;;;;;;;;;;;
2024/04/23 05:55:42;;;;;;;2.95;2.67;;;;;;;13.18;61.86;99403.53;5122587;27;20001;-95
2024/04/23 05:58:08;;;;;;;4.40;2.10;;;;;;;13.01;62.51;99366.97;5046528;28;19998;-93
2024/04/23 06:00:37;;;;;;;7.47;1.90;;;;;;;13.11;62.50;99369.56;5087711;27;20344;-96
2024/04/23 06:03:08;;;;;;;5.10;1.70;;;;;;;13.23;62.44;99379.16;5052445;28;20332;-94
2024/04/23 06:05:33;;;;;;;2.45;1.80;;;;;;;13.29;61.49;99380.75;5045237;28;20005;-95
2024/04/23 06:07:59;;;;;;;4.85;2.38;;;;;;;13.30;61.81;99364.25;5043321;28;20092;-95
2024/04/23 06:10:27;;;;;;;6.18;1.65;;;;;;;13.38;61.57;99362.81;5068585;28;20057;-92
2024/04/23 06:13:09;;;;;;;5.35;1.63;;;;;;;13.57;61.56;99389.91;5064431;28;20006;-93
2024/04/23 06:15:41;;;;;;;6.63;1.75;;;;;;;13.46;62.42;99383.81;5108127;27;20046;-93
2024/04/23 06:19:51;;;;;;;;;;;;;;;;;;;;;
2024/04/23 06:22:01;;;;;;;;;;;;;;;;;;;;;
2024/04/23 06:25:23;;;;;;;4.90;1.77;;;;;;;13.51;60.41;99351.31;5000377;28;20005;-94
2024/04/23 06:28:35;;;;;;;9.38;1.90;;;;;;;13.62;60.29;99353.91;5119211;27;20002;-96
2024/04/23 06:32:21;;;;;;;2.63;1.73;;;;;;;13.54;60.78;99341.81;5107922;27;19990;-95
2024/04/23 06:34:20;;;;;;;6.25;2.00;;;;;;;13.48;60.79;99329.44;5080583;28;19998;-96
2024/04/23 06:37:29;;;;;;;4.78;1.80;;;;;;;13.57;60.54;99337.72;5077588;27;19998;-95
2024/04/23 06:40:01;;;;;;;2.78;1.63;;;;;;;13.60;61.69;99334.44;5099755;28;20369;-96
2024/04/23 06:42:52;;;;;;;4.22;1.70;;;;;;;13.58;61.82;99320.41;5100093;27;20013;-96
2024/04/23 06:45:23;;;;;;;4.20;2.15;;;;;;;13.63;61.71;99320.31;5092414;28;20002;-94
2024/04/23 06:51:16;;;;;;;3.15;2.00;;;;;;;13.57;61.48;99279.00;5127340;27;20017;-96
2024/04/23 06:57:57;;;;;;;3.47;1.95;;;;;;;13.92;60.76;99266.91;5129360;27;20001;-95
2024/04/23 07:00:29;;;;;;;4.28;2.67;;;;;;;14.20;60.40;99269.72;5100964;27;19998;-95
2024/04/23 07:13:05;;;;;;;3.78;2.10;;;;;;;14.74;58.19;99279.16;4983823;28;20003;-96
2024/04/23 07:15:56;;;;;;;3.47;1.75;;;;;;;14.81;57.94;99265.19;4927678;28;20017;-96
2024/04/23 07:19:02;;;;;;;;;;;;;;;;;;;;;
2024/04/23 07:40:26;;;;;;;6.80;2.58;;;;;;;14.93;58.05;99319.75;4999108;28;20017;-95
2024/04/23 07:42:52;;;;;;;3.92;2.30;;;;;;;14.68;58.04;99296.59;4958723;27;20025;-93
2024/04/23 07:45:22;;;;;;;6.28;2.85;;;;;;;14.88;58.02;99317.13;5100695;27;20005;-93
2024/04/23 07:47:48;;;;;;;2.80;1.50;;;;;;;14.90;58.20;99312.22;5125671;27;20034;-95
2024/04/23 07:50:15;;;;;;;4.30;2.15;;;;;;;15.15;58.56;99334.56;5074612;27;20005;-96
2024/04/23 07:52:59;;;;;;;4.32;1.30;;;;;;;15.08;58.58;99315.94;5101505;27;20033;-96
2024/04/23 07:55:34;;;;;;;6.93;2.45;;;;;;;15.12;59.19;99340.56;5102266;27;20030;-94
2024/04/23 08:02:38;;;;;;;;;;;;;;;;;;;;;
2024/04/23 08:05:27;;;;;;;3.58;1.77;;;;;;;14.95;62.93;99328.38;5112736;27;19997;-96
2024/04/23 08:07:58;;;;;;;2.92;2.03;;;;;;;14.88;64.16;99332.56;4982018;28;19996;-96
2024/04/23 09:27:26;;;;;;;3.70;2.40;;;;;;;14.61;70.53;99260.13;5132791;27;20009;-96
2024/04/23 09:34:13;;;;;;;4.25;2.83;;;;;;;14.49;71.33;99252.47;4992499;28;20007;-95
2024/04/23 09:37:25;;;;;;;6.72;2.85;;;;;;;14.50;71.28;99262.19;4978061;28;19996;-96
2024/04/23 09:40:41;;;;;;;40.83;5.72;;;;;;;14.11;72.41;99231.69;4944349;28;20002;-95
2024/04/23 09:46:51;;;;;;;;;;;;;;;;;;;;;
2024/04/23 09:49:23;;;;;;;7.55;3.22;;;;;;;14.02;73.71;99206.38;4940164;29;20006;-93
2024/04/23 09:51:59;;;;;;;;;;;;;;;;;;;;;
2024/04/23 09:54:43;;;;;;;6.88;3.45;;;;;;;13.91;75.58;99197.63;4992616;28;20008;-93
2024/04/23 09:57:11;;;;;;;5.80;3.63;;;;;;;13.95;74.52;99192.44;5004451;28;20081;-91
2024/04/23 10:02:35;;;;;;;5.47;3.28;;;;;;;14.17;75.79;99226.19;5125837;27;20072;-96
2024/04/23 10:05:47;;;;;;;;;;;;;;;;;;;;;
2024/04/23 10:19:21;;;;;;;5.50;2.92;;;;;;;14.19;75.61;99240.22;4938942;29;20009;-94
2024/04/23 10:22:23;;;;;;;3.65;2.53;;;;;;;13.99;75.10;99188.03;5001117;28;20060;-94
2024/04/23 10:26:17;;;;;;;4.65;2.42;;;;;;;14.03;75.60;99183.63;5036875;28;20449;-91
2024/04/23 10:33:02;;;;;;;8.00;4.18;;;;;;;13.88;78.25;99186.56;4927623;29;20014;-93
2024/04/23 10:36:11;;;;;;;;;;;;;;;;;;;;;
2024/04/23 10:39:12;;;;;;;6.90;2.83;;;;;;;13.71;77.23;99154.63;4916863;29;20010;-96
2024/04/23 10:42:14;;;;;;;;;;;;;;;;;;;;;
2024/04/23 10:51:01;;;;;;;;;;;;;;;;;;;;;
2024/04/23 11:02:07;;;;;;;;;;;;;;;;;;;;;
2024/04/23 11:05:41;;;;;;;;;;;;;;;;;;;;;
2024/04/23 11:08:11;;;;;;;3.15;2.33;;;;;;;13.88;76.84;99130.56;4938847;28;20013;-94
2024/04/23 11:10:59;;;;;;;5.10;3.35;;;;;;;14.09;77.66;99178.91;4881892;29;20491;-94
2024/04/23 11:17:45;;;;;;;4.97;3.03;;;;;;;14.22;77.59;99202.53;4943406;29;20006;-96
2024/04/23 11:20:14;;;;;;;5.18;3.80;;;;;;;14.12;78.85;99217.03;4832047;29;20478;-89
2024/04/23 11:23:15;;;;;;;19.60;13.30;;;;;;;14.02;80.20;99219.13;4911572;29;20086;-91
2024/04/23 11:26:01;;;;;;;41.45;25.00;;;;;;;13.83;79.55;99192.06;4889128;29;20022;-92
2024/04/23 11:28:31;;;;;;;9.07;4.85;;;;;;;13.99;79.44;99217.81;4933992;28;20006;-92
2024/04/23 11:31:09;;;;;;;3.47;2.67;;;;;;;14.10;78.89;99226.56;4941880;29;20024;-91
2024/04/23 11:36:18;;;;;;;5.50;3.35;;;;;;;14.02;78.26;99190.13;3210620;22;20005;-93
2024/04/23 11:38:59;;;;;;;;;;;;;;;;;;;;;
2024/04/23 11:42:23;;;;;;;6.25;3.10;;;;;;;14.07;78.01;99154.03;5334425;22;20010;-95
2024/04/23 12:09:12;;;;;;;;;;;;;;;;;;;;;
2024/04/23 14:04:09;;;;;;;2.58;1.77;;;;;;;13.24;81.47;98892.22;5300280;22;4906275;-95
2024/04/23 14:06:36;;;;;;;3.20;2.28;;;;;;;13.37;80.63;98882.56;5056776;28;20003;-95
2024/04/23 14:09:47;;;;;;;7.13;2.25;;;;;;;13.40;80.42;98865.72;5022569;28;20014;-96
2024/04/23 14:43:51;;;;;;;3.15;2.45;;;;;;;13.24;80.44;98848.97;6040265;22;20035;-94
2024/04/23 14:47:01;;;;;;;8.48;5.60;;;;;;;13.42;80.00;98866.22;5040463;28;20059;-96
2024/04/23 14:53:07;;;;;;;2.05;1.20;;;;;;;13.45;78.90;98879.16;5745593;22;20036;-96
2024/04/23 14:56:26;;;;;;;2.63;1.83;;;;;;;13.37;79.54;98877.13;4980060;28;20013;-95
2024/04/23 15:44:07;;;;;;;2.90;1.60;;;;;;;13.21;74.44;98773.06;5154291;27;20009;-96
2024/04/23 15:46:55;;;;;;;;;;;;;;;;;;;;;
2024/04/23 15:49:22;;;;;;;7.47;2.38;;;;;;;13.14;74.80;98793.19;5095629;27;20000;-94
2024/04/23 15:51:49;;;;;;;5.47;2.20;;;;;;;13.08;74.74;98786.25;5098528;27;20008;-93
2024/04/23 15:54:33;;;;;;;6.32;2.38;;;;;;;13.07;74.20;98784.69;5074901;27;20127;-95
2024/04/23 15:56:58;;;;;;;6.68;2.40;;;;;;;13.05;72.83;98756.31;5107807;27;20009;-94
2024/04/23 15:59:24;;;;;;;5.82;2.53;;;;;;;13.13;73.04;98756.41;5077617;27;20009;-96
2024/04/23 16:01:50;;;;;;;3.60;2.00;;;;;;;12.96;71.70;98748.13;5080628;27;20425;-96
2024/04/23 16:04:25;;;;;;;3.35;2.13;;;;;;;12.84;72.30;98729.69;5077979;27;20004;-96
2024/04/23 16:09:26;;;;;;;6.00;2.55;;;;;;;12.92;70.51;98757.94;5126580;27;20016;-95
2024/04/23 16:11:57;;;;;;;5.70;2.70;;;;;;;12.80;70.83;98754.91;5047484;28;19998;-96
2024/04/23 16:14:30;;;;;;;10.25;4.50;;;;;;;12.66;70.39;98744.88;5044343;28;19990;-96
2024/04/23 16:16:56;;;;;;;6.82;2.20;;;;;;;12.60;70.10;98748.78;5094723;28;20418;-95
2024/04/23 16:19:32;;;;;;;;;;;;;;;;;;;;;
2024/04/23 16:22:06;;;;;;;7.28;2.35;;;;;;;12.67;69.82;98708.66;5077226;28;20026;-96
2024/04/23 16:24:32;;;;;;;6.95;2.45;;;;;;;12.67;69.80;98692.47;5046125;28;19998;-95
2024/04/23 16:26:58;;;;;;;3.60;2.08;;;;;;;12.65;70.21;98669.56;5045682;28;20001;-94
2024/04/23 16:29:55;;;;;;;5.95;2.22;;;;;;;12.59;70.24;98662.66;5142138;22;19998;-95
2024/04/23 16:32:23;;;;;;;6.20;2.25;;;;;;;12.54;69.14;98648.16;5078839;27;20007;-95
2024/04/23 16:34:54;;;;;;;10.65;2.80;;;;;;;12.50;69.70;98660.63;5041329;28;20001;-95
2024/04/23 16:37:40;;;;;;;5.05;2.50;;;;;;;12.44;69.08;98637.53;5044451;28;19998;-96
2024/04/23 16:40:07;;;;;;;5.28;2.20;;;;;;;12.62;69.23;98643.97;5071595;28;20012;-96
2024/04/23 16:42:32;;;;;;;11.35;2.40;;;;;;;12.46;69.37;98627.22;5046612;28;19997;-96
2024/04/23 16:45:14;;;;;;;;;;;;;;;;;;;;;
2024/04/23 16:47:43;;;;;;;3.65;1.70;;;;;;;12.68;68.24;98658.97;5100408;28;20001;-96
2024/04/23 16:50:50;;;;;;;;;;;;;;;;;;;;;
2024/04/23 16:53:16;;;;;;;5.25;1.92;;;;;;;12.42;68.87;98625.44;5108589;28;20009;-96
2024/04/23 16:55:42;;;;;;;3.33;1.60;;;;;;;12.45;68.77;98611.31;5044247;28;20053;-96
2024/04/23 16:58:08;;;;;;;2.85;2.03;;;;;;;12.43;69.24;98622.44;5040033;28;20001;-95
2024/04/23 17:00:33;;;;;;;7.68;2.10;;;;;;;12.44;69.26;98615.13;5040182;28;19998;-96
2024/04/23 17:03:00;;;;;;;5.00;2.10;;;;;;;12.50;68.50;98595.84;5039536;28;20003;-96
2024/04/23 17:05:29;;;;;;;5.00;1.90;;;;;;;12.45;68.36;98570.81;5040268;28;20014;-95
2024/04/23 17:07:57;;;;;;;4.75;2.08;;;;;;;12.45;68.46;98595.94;5039619;28;20438;-94
2024/04/23 17:10:24;;;;;;;6.95;2.30;;;;;;;12.42;69.27;98593.03;5039563;28;20118;-96
2024/04/23 17:12:53;;;;;;;8.23;1.90;;;;;;;12.33;68.15;98585.63;5064829;28;20122;-95
2024/04/23 17:15:19;;;;;;;4.20;2.50;;;;;;;12.39;68.38;98561.22;5039547;28;20035;-95
2024/04/23 17:17:47;;;;;;;11.65;2.65;;;;;;;12.53;68.64;98587.16;5038462;28;20002;-96
2024/04/23 17:20:13;;;;;;;7.35;2.10;;;;;;;12.50;68.30;98581.53;5040352;28;20014;-96
2024/04/23 17:22:40;;;;;;;4.20;2.08;;;;;;;12.48;68.54;98605.34;5038405;28;20018;-95
2024/04/23 17:25:11;;;;;;;5.35;2.40;;;;;;;12.39;69.29;98567.44;5039182;28;20071;-96
2024/04/23 17:27:41;;;;;;;5.28;2.08;;;;;;;12.45;69.36;98566.25;5040769;28;20027;-96
2024/04/23 17:30:07;;;;;;;5.93;2.40;;;;;;;12.42;69.25;98557.94;5038669;28;20003;-96
2024/04/23 17:32:33;;;;;;;6.05;2.20;;;;;;;12.41;69.82;98572.53;5064098;28;20003;-95
2024/04/23 17:34:59;;;;;;;5.32;2.22;;;;;;;12.45;69.24;98573.53;5037180;28;20010;-96
2024/04/23 17:37:25;;;;;;;7.30;2.15;;;;;;;12.49;69.43;98561.03;5038701;28;20014;-96
2024/04/23 17:39:51;;;;;;;10.32;3.03;;;;;;;12.53;69.54;98583.63;5037615;28;19999;-94
2024/04/23 17:42:17;;;;;;;5.47;2.17;;;;;;;12.63;70.39;98540.22;5064701;28;20014;-96
2024/04/23 17:44:44;;;;;;;7.82;2.25;;;;;;;12.65;70.14;98539.91;5038136;28;20006;-96
2024/04/23 17:47:10;;;;;;;6.53;2.40;;;;;;;12.42;70.46;98510.13;5039118;28;20002;-95
2024/04/23 17:49:36;;;;;;;8.15;2.30;;;;;;;12.71;69.17;98536.81;5038400;28;20078;-96
2024/04/23 17:52:02;;;;;;;5.18;2.33;;;;;;;12.58;69.23;98497.13;5038316;28;20438;-96
2024/04/23 17:54:28;;;;;;;8.75;2.30;;;;;;;12.68;69.79;98515.03;5064845;28;19999;-95
2024/04/23 17:56:54;;;;;;;5.53;1.90;;;;;;;12.57;68.88;98538.72;5037869;28;19987;-95
2024/04/23 17:59:19;;;;;;;4.40;2.10;;;;;;;12.66;69.64;98515.31;5038328;28;19998;-96
2024/04/23 18:01:48;;;;;;;8.55;2.10;;;;;;;12.63;68.75;98501.63;5037742;28;20319;-95
2024/04/23 18:07:11;;;;;;;4.88;2.38;;;;;;;12.58;69.47;98529.53;5058375;28;19995;-95
2024/04/23 18:09:46;;;;;;;4.65;2.55;;;;;;;12.70;68.68;98548.72;5064659;28;20026;-96
2024/04/23 18:12:12;;;;;;;8.23;2.35;;;;;;;12.67;68.79;98549.31;5042616;28;20013;-96
2024/04/23 18:14:38;;;;;;;7.38;2.30;;;;;;;12.74;69.09;98565.91;5038638;28;20446;-96
2024/04/23 18:17:08;;;;;;;10.05;2.15;;;;;;;12.78;69.16;98560.69;5037887;28;20086;-95
2024/04/23 18:19:34;;;;;;;5.93;2.83;;;;;;;12.88;68.84;98556.97;5063879;28;20326;-96
2024/04/23 18:22:00;;;;;;;5.13;2.63;;;;;;;12.75;69.75;98531.59;5063934;28;19998;-96
2024/04/23 18:24:26;;;;;;;5.55;2.45;;;;;;;12.69;69.17;98503.09;5038739;28;19998;-96
2024/04/23 18:26:51;;;;;;;5.28;2.50;;;;;;;12.71;68.59;98482.78;5038670;28;20022;-95
2024/04/23 18:29:17;;;;;;;7.15;2.47;;;;;;;12.70;69.29;98486.59;5039458;28;19999;-94
2024/04/23 18:31:43;;;;;;;7.30;2.58;;;;;;;12.68;69.41;98475.28;5040355;28;20314;-96
2024/04/23 18:34:11;;;;;;;10.15;3.80;;;;;;;12.63;69.63;98466.50;5038923;28;19995;-95
2024/04/23 18:36:41;;;;;;;6.60;2.95;;;;;;;12.80;69.68;98457.75;5063914;28;20086;-95
2024/04/23 18:39:06;;;;;;;5.20;2.40;;;;;;;12.75;69.34;98447.88;5038974;28;19999;-95
2024/04/23 18:41:35;;;;;;;6.57;2.45;;;;;;;12.56;69.63;98404.81;5066872;28;19998;-96
2024/04/23 18:44:08;;;;;;;4.53;2.22;;;;;;;12.49;69.37;98375.53;5042706;28;20009;-96
2024/04/23 18:46:37;;;;;;;7.45;2.15;;;;;;;12.64;69.60;98411.41;5039791;28;19994;-96
2024/04/23 18:49:02;;;;;;;9.07;2.13;;;;;;;12.74;69.60;98443.53;5038161;28;20006;-94
2024/04/23 18:51:28;;;;;;;4.57;2.67;;;;;;;12.50;70.18;98412.22;5039395;28;20006;-94
2024/04/23 18:54:21;;;;;;;6.97;2.70;;;;;;;12.61;70.46;98431.69;5045411;28;20010;-96
2024/04/23 18:56:48;;;;;;;7.60;2.45;;;;;;;12.50;71.17;98441.13;5073990;28;20023;-96
2024/04/23 18:59:14;;;;;;;7.57;2.80;;;;;;;12.43;70.98;98430.75;5039473;28;20006;-96
2024/04/23 19:01:49;;;;;;;4.95;2.50;;;;;;;12.45;71.05;98419.63;5038835;28;20486;-96
2024/04/23 19:04:15;;;;;;;7.68;2.75;;;;;;;12.39;72.02;98401.94;5064628;28;20010;-96